sensor_id;sensor_type;location;lat;lon;timestamp;pressure;altitude;pressure_sealevel;temperature;humidity
29247;BME280;16272;48.188;9.964;2022-08-20T00:00:01;95736.31;;;21.88;67.59
29247;BME280;16272;48.188;9.964;2022-08-20T00:02:26;95745.25;;;21.88;66.91
29247;BME280;16272;48.188;9.964;2022-08-20T00:04:52;95734.25;;;21.64;68.08
29247;BME280;16272;48.188;9.964;2022-08-20T00:07:17;95739.44;;;22.21;65.99
29247;BME280;16272;48.188;9.964;2022-08-20T00:09:43;95734.97;;;22.64;65.37
29247;BME280;16272;48.188;9.964;2022-08-20T00:12:10;95736.59;;;22.16;66.56
29247;BME280;16272;48.188;9.964;2022-08-20T00:14:49;95738.53;;;21.72;67.47
29247;BME280;16272;48.188;9.964;2022-08-20T00:17:15;95735.72;;;22.04;66.84
29247;BME280;16272;48.188;9.964;2022-08-20T00:19:40;95737.72;;;21.72;67.98
29247;BME280;16272;48.188;9.964;2022-08-20T00:22:07;95729.19;;;22.30;66.10
29247;BME280;16272;48.188;9.964;2022-08-20T00:24:32;95736.00;;;22.14;66.39
29247;BME280;16272;48.188;9.964;2022-08-20T00:26:59;95729.38;;;21.73;67.80
29247;BME280;16272;48.188;9.964;2022-08-20T00:29:24;95733.91;;;21.79;67.48
29247;BME280;16272;48.188;9.964;2022-08-20T00:31:50;95735.91;;;22.21;65.72
29247;BME280;16272;48.188;9.964;2022-08-20T00:34:15;95741.09;;;22.23;65.64
29247;BME280;16272;48.188;9.964;2022-08-20T00:36:40;95737.69;;;22.34;65.45
29247;BME280;16272;48.188;9.964;2022-08-20T00:39:06;95738.72;;;22.33;65.20
29247;BME280;16272;48.188;9.964;2022-08-20T00:41:31;95738.13;;;22.12;65.91
29247;BME280;16272;48.188;9.964;2022-08-20T00:44:10;95745.34;;;22.98;63.99
29247;BME280;16272;48.188;9.964;2022-08-20T00:46:37;95751.03;;;21.92;66.75
29247;BME280;16272;48.188;9.964;2022-08-20T00:49:04;95749.28;;;22.71;64.44
29247;BME280;16272;48.188;9.964;2022-08-20T00:51:49;95760.31;;;22.70;64.36
29247;BME280;16272;48.188;9.964;2022-08-20T00:56:54;95753.88;;;22.52;64.92
29247;BME280;16272;48.188;9.964;2022-08-20T00:59:25;95756.53;;;22.71;64.30
29247;BME280;16272;48.188;9.964;2022-08-20T01:01:51;95756.31;;;22.24;65.59
29247;BME280;16272;48.188;9.964;2022-08-20T01:04:17;95746.81;;;22.14;65.87
29247;BME280;16272;48.188;9.964;2022-08-20T01:06:47;95750.34;;;22.15;65.75
29247;BME280;16272;48.188;9.964;2022-08-20T01:09:13;95751.94;;;22.41;64.57
29247;BME280;16272;48.188;9.964;2022-08-20T01:11:38;95753.03;;;21.78;66.67
29247;BME280;16272;48.188;9.964;2022-08-20T01:14:14;95746.47;;;22.29;65.27
29247;BME280;16272;48.188;9.964;2022-08-20T01:16:55;95752.06;;;22.65;64.32
29247;BME280;16272;48.188;9.964;2022-08-20T01:19:28;95750.38;;;23.12;62.93
29247;BME280;16272;48.188;9.964;2022-08-20T01:21:54;95759.72;;;21.75;66.93
29247;BME280;16272;48.188;9.964;2022-08-20T01:24:28;95753.16;;;22.45;64.74
29247;BME280;16272;48.188;9.964;2022-08-20T01:26:58;95752.00;;;22.83;63.14
29247;BME280;16272;48.188;9.964;2022-08-20T01:29:28;95755.41;;;22.30;65.25
29247;BME280;16272;48.188;9.964;2022-08-20T01:31:57;95763.41;;;22.18;65.58
29247;BME280;16272;48.188;9.964;2022-08-20T01:34:25;95755.38;;;22.67;63.65
29247;BME280;16272;48.188;9.964;2022-08-20T01:36:53;95756.16;;;22.37;65.28
29247;BME280;16272;48.188;9.964;2022-08-20T01:39:26;95758.97;;;21.87;66.74
29247;BME280;16272;48.188;9.964;2022-08-20T01:42:27;95754.06;;;23.00;62.65
29247;BME280;16272;48.188;9.964;2022-08-20T01:44:55;95765.41;;;22.29;65.29
29247;BME280;16272;48.188;9.964;2022-08-20T01:47:22;95758.03;;;22.36;64.19
29247;BME280;16272;48.188;9.964;2022-08-20T01:49:50;95760.72;;;22.55;64.54
29247;BME280;16272;48.188;9.964;2022-08-20T01:52:25;95763.50;;;22.11;65.66
29247;BME280;16272;48.188;9.964;2022-08-20T01:54:52;95765.00;;;22.93;62.77
29247;BME280;16272;48.188;9.964;2022-08-20T01:57:19;95758.81;;;22.18;65.39
29247;BME280;16272;48.188;9.964;2022-08-20T01:59:49;95756.22;;;22.49;64.62
29247;BME280;16272;48.188;9.964;2022-08-20T02:02:14;95763.34;;;22.25;65.16
29247;BME280;16272;48.188;9.964;2022-08-20T02:04:40;95762.97;;;21.59;67.12
29247;BME280;16272;48.188;9.964;2022-08-20T02:07:11;95767.19;;;22.17;65.14
29247;BME280;16272;48.188;9.964;2022-08-20T02:09:38;95753.38;;;22.44;64.31
29247;BME280;16272;48.188;9.964;2022-08-20T02:12:12;95764.66;;;21.78;66.41
29247;BME280;16272;48.188;9.964;2022-08-20T02:14:40;95769.06;;;22.16;65.56
29247;BME280;16272;48.188;9.964;2022-08-20T02:17:08;95768.16;;;22.04;66.00
29247;BME280;16272;48.188;9.964;2022-08-20T02:19:38;95765.75;;;22.70;63.88
29247;BME280;16272;48.188;9.964;2022-08-20T02:22:23;95768.31;;;22.09;65.17
29247;BME280;16272;48.188;9.964;2022-08-20T02:24:49;95761.88;;;22.29;64.88
29247;BME280;16272;48.188;9.964;2022-08-20T02:27:15;95768.31;;;21.91;65.92
29247;BME280;16272;48.188;9.964;2022-08-20T02:29:42;95757.28;;;22.29;64.92
29247;BME280;16272;48.188;9.964;2022-08-20T02:32:08;95757.88;;;22.31;64.53
29247;BME280;16272;48.188;9.964;2022-08-20T02:34:34;95768.47;;;21.71;66.42
29247;BME280;16272;48.188;9.964;2022-08-20T02:37:01;95765.69;;;22.39;64.41
29247;BME280;16272;48.188;9.964;2022-08-20T02:39:26;95764.88;;;22.20;64.48
29247;BME280;16272;48.188;9.964;2022-08-20T02:41:52;95765.75;;;21.96;65.54
29247;BME280;16272;48.188;9.964;2022-08-20T02:44:17;95768.59;;;21.32;66.75
29247;BME280;16272;48.188;9.964;2022-08-20T02:46:46;95759.63;;;21.82;66.49
29247;BME280;16272;48.188;9.964;2022-08-20T02:49:12;95757.66;;;21.45;67.08
29247;BME280;16272;48.188;9.964;2022-08-20T02:51:37;95767.09;;;21.87;65.54
29247;BME280;16272;48.188;9.964;2022-08-20T02:54:02;95767.22;;;21.73;66.35
29247;BME280;16272;48.188;9.964;2022-08-20T02:56:28;95765.09;;;21.57;66.36
29247;BME280;16272;48.188;9.964;2022-08-20T02:58:53;95768.69;;;21.94;65.49
29247;BME280;16272;48.188;9.964;2022-08-20T03:01:19;95770.50;;;21.57;66.25
29247;BME280;16272;48.188;9.964;2022-08-20T03:03:44;95770.94;;;21.54;66.92
29247;BME280;16272;48.188;9.964;2022-08-20T03:06:11;95768.75;;;21.62;66.94
29247;BME280;16272;48.188;9.964;2022-08-20T03:08:37;95764.91;;;21.77;66.43
29247;BME280;16272;48.188;9.964;2022-08-20T03:11:03;95766.94;;;21.31;68.10
29247;BME280;16272;48.188;9.964;2022-08-20T03:13:29;95764.50;;;21.55;66.59
29247;BME280;16272;48.188;9.964;2022-08-20T03:15:57;95768.09;;;21.67;66.63
29247;BME280;16272;48.188;9.964;2022-08-20T03:18:25;95770.22;;;21.65;66.71
29247;BME280;16272;48.188;9.964;2022-08-20T03:20:51;95762.16;;;21.01;68.23
29247;BME280;16272;48.188;9.964;2022-08-20T03:23:18;95765.56;;;21.22;67.83
29247;BME280;16272;48.188;9.964;2022-08-20T03:25:44;95773.72;;;21.40;67.31
29247;BME280;16272;48.188;9.964;2022-08-20T03:28:10;95776.38;;;21.22;67.54
29247;BME280;16272;48.188;9.964;2022-08-20T03:30:36;95776.59;;;20.82;68.40
29247;BME280;16272;48.188;9.964;2022-08-20T03:33:02;95781.00;;;21.08;67.72
29247;BME280;16272;48.188;9.964;2022-08-20T03:35:29;95785.59;;;21.07;67.78
29247;BME280;16272;48.188;9.964;2022-08-20T03:37:55;95785.66;;;21.01;67.85
29247;BME280;16272;48.188;9.964;2022-08-20T03:40:31;95785.72;;;21.44;66.88
29247;BME280;16272;48.188;9.964;2022-08-20T03:42:57;95785.25;;;21.54;66.02
29247;BME280;16272;48.188;9.964;2022-08-20T03:45:24;95785.44;;;21.27;67.38
29247;BME280;16272;48.188;9.964;2022-08-20T03:47:56;95785.28;;;20.90;68.47
29247;BME280;16272;48.188;9.964;2022-08-20T03:50:24;95780.59;;;21.11;67.91
29247;BME280;16272;48.188;9.964;2022-08-20T03:52:51;95780.81;;;21.09;67.38
29247;BME280;16272;48.188;9.964;2022-08-20T03:55:17;95782.78;;;20.89;67.75
29247;BME280;16272;48.188;9.964;2022-08-20T03:57:54;95782.53;;;20.97;67.69
29247;BME280;16272;48.188;9.964;2022-08-20T04:00:38;95786.25;;;20.64;69.03
29247;BME280;16272;48.188;9.964;2022-08-20T04:03:04;95793.69;;;20.62;68.86
29247;BME280;16272;48.188;9.964;2022-08-20T04:05:32;95794.47;;;20.83;67.53
29247;BME280;16272;48.188;9.964;2022-08-20T04:08:00;95799.81;;;20.37;69.91
29247;BME280;16272;48.188;9.964;2022-08-20T04:10:25;95795.91;;;20.33;69.50
29247;BME280;16272;48.188;9.964;2022-08-20T04:12:51;95795.81;;;20.53;68.83
29247;BME280;16272;48.188;9.964;2022-08-20T04:15:18;95800.34;;;20.73;68.30
29247;BME280;16272;48.188;9.964;2022-08-20T04:17:47;95790.41;;;20.99;67.37
29247;BME280;16272;48.188;9.964;2022-08-20T04:20:17;95796.91;;;20.91;67.47
29247;BME280;16272;48.188;9.964;2022-08-20T04:22:55;95801.53;;;21.16;66.97
29247;BME280;16272;48.188;9.964;2022-08-20T04:25:21;95802.00;;;20.67;67.84
29247;BME280;16272;48.188;9.964;2022-08-20T04:27:51;95799.56;;;21.29;65.85
29247;BME280;16272;48.188;9.964;2022-08-20T04:30:18;95797.44;;;21.38;65.60
29247;BME280;16272;48.188;9.964;2022-08-20T04:32:45;95812.97;;;20.72;67.83
29247;BME280;16272;48.188;9.964;2022-08-20T04:35:12;95814.59;;;20.80;67.16
29247;BME280;16272;48.188;9.964;2022-08-20T04:37:43;95813.41;;;21.08;66.89
29247;BME280;16272;48.188;9.964;2022-08-20T04:40:15;95808.94;;;21.27;65.94
29247;BME280;16272;48.188;9.964;2022-08-20T04:43:00;95809.25;;;21.12;66.59
29247;BME280;16272;48.188;9.964;2022-08-20T04:45:25;95813.88;;;20.98;66.44
29247;BME280;16272;48.188;9.964;2022-08-20T04:47:51;95826.34;;;20.99;66.47
29247;BME280;16272;48.188;9.964;2022-08-20T04:50:18;95815.63;;;20.86;67.03
29247;BME280;16272;48.188;9.964;2022-08-20T04:52:44;95819.06;;;21.32;66.06
29247;BME280;16272;48.188;9.964;2022-08-20T04:55:09;95814.94;;;21.61;64.47
29247;BME280;16272;48.188;9.964;2022-08-20T04:57:38;95822.84;;;20.92;67.45
29247;BME280;16272;48.188;9.964;2022-08-20T05:00:07;95822.00;;;20.98;66.62
29247;BME280;16272;48.188;9.964;2022-08-20T05:02:33;95817.97;;;21.14;66.50
29247;BME280;16272;48.188;9.964;2022-08-20T05:04:59;95818.22;;;20.54;67.78
29247;BME280;16272;48.188;9.964;2022-08-20T05:07:25;95824.09;;;21.28;65.80
29247;BME280;16272;48.188;9.964;2022-08-20T05:09:50;95822.78;;;21.05;66.12
29247;BME280;16272;48.188;9.964;2022-08-20T05:12:15;95823.88;;;21.29;65.34
29247;BME280;16272;48.188;9.964;2022-08-20T05:14:43;95832.69;;;20.80;66.87
29247;BME280;16272;48.188;9.964;2022-08-20T05:17:09;95829.75;;;21.20;65.54
29247;BME280;16272;48.188;9.964;2022-08-20T05:19:34;95829.38;;;21.16;66.16
29247;BME280;16272;48.188;9.964;2022-08-20T05:22:02;95842.31;;;21.71;64.19
29247;BME280;16272;48.188;9.964;2022-08-20T05:24:29;95838.09;;;21.75;64.12
29247;BME280;16272;48.188;9.964;2022-08-20T05:26:54;95844.34;;;21.44;65.21
29247;BME280;16272;48.188;9.964;2022-08-20T05:29:21;95846.38;;;21.55;65.10
29247;BME280;16272;48.188;9.964;2022-08-20T05:31:46;95851.34;;;21.20;65.97
29247;BME280;16272;48.188;9.964;2022-08-20T05:34:12;95848.13;;;21.36;65.60
29247;BME280;16272;48.188;9.964;2022-08-20T05:36:49;95851.53;;;21.25;66.11
29247;BME280;16272;48.188;9.964;2022-08-20T05:39:18;95851.69;;;20.98;67.23
29247;BME280;16272;48.188;9.964;2022-08-20T05:41:46;95849.19;;;21.67;65.33
29247;BME280;16272;48.188;9.964;2022-08-20T05:44:13;95855.25;;;20.92;67.43
29247;BME280;16272;48.188;9.964;2022-08-20T05:46:41;95854.03;;;20.88;67.25
29247;BME280;16272;48.188;9.964;2022-08-20T05:49:09;95851.22;;;21.08;66.66
29247;BME280;16272;48.188;9.964;2022-08-20T05:51:36;95852.41;;;21.19;66.67
29247;BME280;16272;48.188;9.964;2022-08-20T05:54:02;95850.34;;;21.46;65.77
29247;BME280;16272;48.188;9.964;2022-08-20T05:56:28;95858.25;;;21.16;65.83
29247;BME280;16272;48.188;9.964;2022-08-20T05:58:56;95865.50;;;21.54;64.70
29247;BME280;16272;48.188;9.964;2022-08-20T06:01:21;95860.47;;;21.57;65.17
29247;BME280;16272;48.188;9.964;2022-08-20T06:03:47;95856.59;;;21.15;66.07
29247;BME280;16272;48.188;9.964;2022-08-20T06:06:32;95855.81;;;21.96;63.42
29247;BME280;16272;48.188;9.964;2022-08-20T06:08:59;95850.53;;;21.83;63.86
29247;BME280;16272;48.188;9.964;2022-08-20T06:11:24;95857.03;;;21.75;64.30
29247;BME280;16272;48.188;9.964;2022-08-20T06:13:50;95860.00;;;21.67;64.44
29247;BME280;16272;48.188;9.964;2022-08-20T06:16:15;95866.94;;;21.18;65.70
29247;BME280;16272;48.188;9.964;2022-08-20T06:18:40;95866.09;;;21.24;65.20
29247;BME280;16272;48.188;9.964;2022-08-20T06:21:07;95868.09;;;22.17;62.80
29247;BME280;16272;48.188;9.964;2022-08-20T06:23:32;95859.16;;;21.92;63.82
29247;BME280;16272;48.188;9.964;2022-08-20T06:25:57;95867.69;;;22.39;61.96
29247;BME280;16272;48.188;9.964;2022-08-20T06:28:25;95867.72;;;21.89;64.08
29247;BME280;16272;48.188;9.964;2022-08-20T06:30:51;95874.75;;;21.33;65.36
29247;BME280;16272;48.188;9.964;2022-08-20T06:33:16;95862.50;;;22.37;62.21
29247;BME280;16272;48.188;9.964;2022-08-20T06:35:41;95867.13;;;21.61;64.51
29247;BME280;16272;48.188;9.964;2022-08-20T06:38:10;95864.72;;;21.97;64.27
29247;BME280;16272;48.188;9.964;2022-08-20T06:40:37;95867.38;;;23.03;61.53
29247;BME280;16272;48.188;9.964;2022-08-20T06:43:03;95866.41;;;22.79;61.27
29247;BME280;16272;48.188;9.964;2022-08-20T06:45:31;95865.06;;;22.88;61.43
29247;BME280;16272;48.188;9.964;2022-08-20T06:47:58;95862.22;;;22.46;62.32
29247;BME280;16272;48.188;9.964;2022-08-20T06:50:33;95858.13;;;22.92;61.87
29247;BME280;16272;48.188;9.964;2022-08-20T06:53:04;95867.91;;;22.56;62.54
29247;BME280;16272;48.188;9.964;2022-08-20T06:55:33;95870.13;;;22.22;64.16
29247;BME280;16272;48.188;9.964;2022-08-20T06:58:01;95865.28;;;22.49;63.45
29247;BME280;16272;48.188;9.964;2022-08-20T07:00:30;95857.06;;;22.93;62.56
29247;BME280;16272;48.188;9.964;2022-08-20T07:02:59;95864.97;;;22.94;63.66
29247;BME280;16272;48.188;9.964;2022-08-20T07:05:26;95864.19;;;23.66;60.72
29247;BME280;16272;48.188;9.964;2022-08-20T07:07:54;95858.75;;;22.94;62.30
29247;BME280;16272;48.188;9.964;2022-08-20T07:10:21;95866.38;;;23.88;61.01
29247;BME280;16272;48.188;9.964;2022-08-20T07:12:47;95873.44;;;23.47;63.16
29247;BME280;16272;48.188;9.964;2022-08-20T07:15:18;95867.03;;;22.62;64.53
29247;BME280;16272;48.188;9.964;2022-08-20T07:18:00;95874.63;;;22.28;65.22
29247;BME280;16272;48.188;9.964;2022-08-20T07:20:27;95863.28;;;23.30;63.15
29247;BME280;16272;48.188;9.964;2022-08-20T07:22:53;95871.94;;;23.21;61.70
29247;BME280;16272;48.188;9.964;2022-08-20T07:25:20;95856.59;;;25.10;57.53
29247;BME280;16272;48.188;9.964;2022-08-20T07:27:47;95854.94;;;24.10;58.44
29247;BME280;16272;48.188;9.964;2022-08-20T07:30:20;95856.22;;;23.95;60.50
29247;BME280;16272;48.188;9.964;2022-08-20T07:33:05;95854.00;;;24.16;59.49
29247;BME280;16272;48.188;9.964;2022-08-20T07:35:30;95859.34;;;24.87;57.04
29247;BME280;16272;48.188;9.964;2022-08-20T07:37:56;95858.88;;;24.90;58.15
29247;BME280;16272;48.188;9.964;2022-08-20T07:40:34;95859.56;;;24.97;60.50
29247;BME280;16272;48.188;9.964;2022-08-20T07:43:00;95870.56;;;24.90;58.67
29247;BME280;16272;48.188;9.964;2022-08-20T07:45:29;95870.19;;;24.58;60.43
29247;BME280;16272;48.188;9.964;2022-08-20T07:48:05;95869.09;;;25.11;59.51
29247;BME280;16272;48.188;9.964;2022-08-20T07:50:31;95865.19;;;26.11;56.48
29247;BME280;16272;48.188;9.964;2022-08-20T07:52:56;95866.19;;;25.76;58.29
29247;BME280;16272;48.188;9.964;2022-08-20T07:55:28;95867.38;;;25.97;53.93
29247;BME280;16272;48.188;9.964;2022-08-20T07:57:57;95875.75;;;25.61;57.52
29247;BME280;16272;48.188;9.964;2022-08-20T08:00:24;95871.50;;;26.16;55.97
29247;BME280;16272;48.188;9.964;2022-08-20T08:02:50;95875.69;;;25.27;58.16
29247;BME280;16272;48.188;9.964;2022-08-20T08:05:15;95884.78;;;24.69;58.55
29247;BME280;16272;48.188;9.964;2022-08-20T08:07:43;95878.41;;;25.16;58.52
29247;BME280;16272;48.188;9.964;2022-08-20T08:10:12;95880.88;;;24.53;59.43
29247;BME280;16272;48.188;9.964;2022-08-20T08:12:42;95885.78;;;25.03;58.80
29247;BME280;16272;48.188;9.964;2022-08-20T08:15:13;95877.84;;;25.42;55.84
29247;BME280;16272;48.188;9.964;2022-08-20T08:17:40;95878.59;;;25.55;56.77
29247;BME280;16272;48.188;9.964;2022-08-20T08:20:15;95877.38;;;25.62;56.76
29247;BME280;16272;48.188;9.964;2022-08-20T08:22:41;95872.84;;;25.97;57.25
29247;BME280;16272;48.188;9.964;2022-08-20T08:25:09;95882.53;;;26.27;55.94
29247;BME280;16272;48.188;9.964;2022-08-20T08:27:35;95880.53;;;25.13;55.69
29247;BME280;16272;48.188;9.964;2022-08-20T08:30:01;95878.97;;;25.58;57.04
29247;BME280;16272;48.188;9.964;2022-08-20T08:32:28;95880.56;;;25.88;57.72
29247;BME280;16272;48.188;9.964;2022-08-20T08:34:56;95879.66;;;26.16;55.92
29247;BME280;16272;48.188;9.964;2022-08-20T08:37:34;95879.94;;;25.98;56.77
29247;BME280;16272;48.188;9.964;2022-08-20T08:40:02;95874.91;;;25.61;59.03
29247;BME280;16272;48.188;9.964;2022-08-20T08:42:43;95866.88;;;26.17;59.47
29247;BME280;16272;48.188;9.964;2022-08-20T08:45:30;95877.94;;;26.27;57.76
29247;BME280;16272;48.188;9.964;2022-08-20T08:47:58;95884.41;;;25.75;60.72
29247;BME280;16272;48.188;9.964;2022-08-20T08:50:28;95882.94;;;24.98;61.15
29247;BME280;16272;48.188;9.964;2022-08-20T08:52:57;95887.56;;;24.86;63.72
29247;BME280;16272;48.188;9.964;2022-08-20T08:55:26;95885.66;;;24.98;62.29
29247;BME280;16272;48.188;9.964;2022-08-20T08:57:55;95882.72;;;25.00;62.22
29247;BME280;16272;48.188;9.964;2022-08-20T09:00:23;95883.56;;;24.88;59.62
29247;BME280;16272;48.188;9.964;2022-08-20T09:03:02;95869.59;;;25.83;59.34
29247;BME280;16272;48.188;9.964;2022-08-20T09:05:52;95882.38;;;24.96;60.98
29247;BME280;16272;48.188;9.964;2022-08-20T09:08:23;95883.38;;;24.19;64.32
29247;BME280;16272;48.188;9.964;2022-08-20T09:10:50;95876.88;;;24.67;61.40
29247;BME280;16272;48.188;9.964;2022-08-20T09:13:21;95869.75;;;24.90;61.31
29247;BME280;16272;48.188;9.964;2022-08-20T09:15:46;95880.91;;;25.05;59.79
29247;BME280;16272;48.188;9.964;2022-08-20T09:18:12;95873.94;;;25.09;59.37
29247;BME280;16272;48.188;9.964;2022-08-20T09:20:37;95879.25;;;23.93;63.29
29247;BME280;16272;48.188;9.964;2022-08-20T09:23:05;95890.19;;;24.81;60.98
29247;BME280;16272;48.188;9.964;2022-08-20T09:25:31;95889.28;;;24.16;61.93
29247;BME280;16272;48.188;9.964;2022-08-20T09:27:56;95877.75;;;25.37;59.39
29247;BME280;16272;48.188;9.964;2022-08-20T09:30:22;95877.63;;;26.07;56.68
29247;BME280;16272;48.188;9.964;2022-08-20T09:32:47;95883.72;;;25.97;57.11
29247;BME280;16272;48.188;9.964;2022-08-20T09:35:12;95876.00;;;25.94;57.97
29247;BME280;16272;48.188;9.964;2022-08-20T09:37:41;95878.66;;;24.38;62.80
29247;BME280;16272;48.188;9.964;2022-08-20T09:40:07;95874.38;;;26.27;59.38
29247;BME280;16272;48.188;9.964;2022-08-20T09:42:36;95867.03;;;25.76;60.35
29247;BME280;16272;48.188;9.964;2022-08-20T09:45:02;95877.94;;;24.43;63.73
29247;BME280;16272;48.188;9.964;2022-08-20T09:47:28;95873.69;;;24.23;64.66
29247;BME280;16272;48.188;9.964;2022-08-20T09:49:53;95865.56;;;23.99;64.65
29247;BME280;16272;48.188;9.964;2022-08-20T09:52:30;95875.78;;;23.85;64.93
29247;BME280;16272;48.188;9.964;2022-08-20T09:55:06;95867.22;;;24.24;64.15
29247;BME280;16272;48.188;9.964;2022-08-20T09:57:33;95864.13;;;25.08;64.07
29247;BME280;16272;48.188;9.964;2022-08-20T10:00:06;95854.38;;;27.21;56.34
29247;BME280;16272;48.188;9.964;2022-08-20T10:02:33;95860.94;;;26.76;58.24
29247;BME280;16272;48.188;9.964;2022-08-20T10:04:59;95871.22;;;24.57;62.63
29247;BME280;16272;48.188;9.964;2022-08-20T10:07:24;95867.00;;;27.05;56.95
29247;BME280;16272;48.188;9.964;2022-08-20T10:09:50;95856.81;;;27.18;57.14
29247;BME280;16272;48.188;9.964;2022-08-20T10:12:15;95862.34;;;27.28;56.36
29247;BME280;16272;48.188;9.964;2022-08-20T10:14:40;95858.81;;;27.27;57.81
29247;BME280;16272;48.188;9.964;2022-08-20T10:17:06;95861.59;;;27.87;55.20
29247;BME280;16272;48.188;9.964;2022-08-20T10:19:31;95858.50;;;27.24;52.94
29247;BME280;16272;48.188;9.964;2022-08-20T10:21:57;95853.19;;;27.34;53.49
29247;BME280;16272;48.188;9.964;2022-08-20T10:24:23;95859.72;;;26.67;55.57
29247;BME280;16272;48.188;9.964;2022-08-20T10:26:49;95863.66;;;28.02;53.63
29247;BME280;16272;48.188;9.964;2022-08-20T10:29:15;95866.75;;;27.56;52.31
29247;BME280;16272;48.188;9.964;2022-08-20T10:31:40;95854.16;;;28.10;52.40
29247;BME280;16272;48.188;9.964;2022-08-20T10:34:14;95853.72;;;28.23;54.11
29247;BME280;16272;48.188;9.964;2022-08-20T10:36:41;95848.78;;;28.20;54.08
29247;BME280;16272;48.188;9.964;2022-08-20T10:39:06;95837.63;;;29.43;50.84
29247;BME280;16272;48.188;9.964;2022-08-20T10:41:35;95843.31;;;28.20;53.74
29247;BME280;16272;48.188;9.964;2022-08-20T10:44:02;95832.59;;;29.14;53.60
29247;BME280;16272;48.188;9.964;2022-08-20T10:46:27;95820.97;;;30.11;50.69
29247;BME280;16272;48.188;9.964;2022-08-20T10:48:52;95826.16;;;30.49;47.15
29247;BME280;16272;48.188;9.964;2022-08-20T10:51:26;95816.88;;;30.24;45.20
29247;BME280;16272;48.188;9.964;2022-08-20T10:53:51;95827.53;;;28.70;51.20
29247;BME280;16272;48.188;9.964;2022-08-20T10:56:16;95824.41;;;27.81;50.22
29247;BME280;16272;48.188;9.964;2022-08-20T10:58:42;95831.94;;;28.81;52.82
29247;BME280;16272;48.188;9.964;2022-08-20T11:01:08;95823.31;;;28.52;51.50
29247;BME280;16272;48.188;9.964;2022-08-20T11:03:33;95825.63;;;27.30;52.78
29247;BME280;16272;48.188;9.964;2022-08-20T11:05:59;95824.19;;;26.78;51.56
29247;BME280;16272;48.188;9.964;2022-08-20T11:08:25;95825.94;;;27.34;52.65
29247;BME280;16272;48.188;9.964;2022-08-20T11:10:50;95828.56;;;27.56;53.19
29247;BME280;16272;48.188;9.964;2022-08-20T11:13:17;95834.34;;;27.92;52.54
29247;BME280;16272;48.188;9.964;2022-08-20T11:15:42;95828.19;;;27.69;53.17
29247;BME280;16272;48.188;9.964;2022-08-20T11:18:08;95829.91;;;28.61;50.55
29247;BME280;16272;48.188;9.964;2022-08-20T11:20:34;95831.25;;;27.78;52.87
29247;BME280;16272;48.188;9.964;2022-08-20T11:23:00;95829.69;;;25.89;58.33
29247;BME280;16272;48.188;9.964;2022-08-20T11:25:27;95836.41;;;24.42;61.91
29247;BME280;16272;48.188;9.964;2022-08-20T11:27:55;95835.53;;;26.31;58.63
29247;BME280;16272;48.188;9.964;2022-08-20T11:30:24;95834.19;;;25.49;60.58
29247;BME280;16272;48.188;9.964;2022-08-20T11:32:50;95840.72;;;25.82;58.33
29247;BME280;16272;48.188;9.964;2022-08-20T11:35:15;95841.34;;;26.79;55.07
29247;BME280;16272;48.188;9.964;2022-08-20T11:37:42;95852.88;;;26.08;57.76
29247;BME280;16272;48.188;9.964;2022-08-20T11:40:08;95855.72;;;25.50;57.81
29247;BME280;16272;48.188;9.964;2022-08-20T11:42:35;95852.44;;;25.82;56.74
29247;BME280;16272;48.188;9.964;2022-08-20T11:45:02;95856.03;;;25.54;57.81
29247;BME280;16272;48.188;9.964;2022-08-20T11:47:28;95853.16;;;25.03;59.75
29247;BME280;16272;48.188;9.964;2022-08-20T11:49:59;95862.00;;;25.85;57.63
29247;BME280;16272;48.188;9.964;2022-08-20T11:52:37;95852.50;;;27.00;54.63
29247;BME280;16272;48.188;9.964;2022-08-20T11:55:04;95849.22;;;25.85;55.88
29247;BME280;16272;48.188;9.964;2022-08-20T11:57:32;95849.63;;;26.28;57.17
29247;BME280;16272;48.188;9.964;2022-08-20T12:00:00;95848.84;;;27.38;53.51
29247;BME280;16272;48.188;9.964;2022-08-20T12:02:26;95853.31;;;25.54;58.65
29247;BME280;16272;48.188;9.964;2022-08-20T12:04:52;95847.38;;;26.42;56.68
29247;BME280;16272;48.188;9.964;2022-08-20T12:07:21;95852.78;;;24.83;61.09
29247;BME280;16272;48.188;9.964;2022-08-20T12:09:48;95850.63;;;26.78;55.91
29247;BME280;16272;48.188;9.964;2022-08-20T12:12:15;95858.28;;;26.25;57.42
29247;BME280;16272;48.188;9.964;2022-08-20T12:14:40;95867.50;;;26.41;55.98
29247;BME280;16272;48.188;9.964;2022-08-20T12:17:27;95868.13;;;25.46;53.65
29247;BME280;16272;48.188;9.964;2022-08-20T12:19:54;95865.78;;;26.52;53.34
29247;BME280;16272;48.188;9.964;2022-08-20T12:22:20;95867.06;;;25.47;53.55
29247;BME280;16272;48.188;9.964;2022-08-20T12:24:46;95865.53;;;25.68;51.89
29247;BME280;16272;48.188;9.964;2022-08-20T12:27:15;95862.72;;;25.80;49.76
29247;BME280;16272;48.188;9.964;2022-08-20T12:29:43;95873.50;;;26.04;49.99
29247;BME280;16272;48.188;9.964;2022-08-20T12:32:09;95867.69;;;25.83;51.97
29247;BME280;16272;48.188;9.964;2022-08-20T12:34:36;95873.84;;;25.45;50.99
29247;BME280;16272;48.188;9.964;2022-08-20T12:37:06;95872.28;;;25.66;52.39
29247;BME280;16272;48.188;9.964;2022-08-20T12:39:44;95869.91;;;25.86;51.41
29247;BME280;16272;48.188;9.964;2022-08-20T12:42:10;95872.53;;;25.64;51.85
29247;BME280;16272;48.188;9.964;2022-08-20T12:44:37;95874.31;;;25.88;49.98
29247;BME280;16272;48.188;9.964;2022-08-20T12:47:16;95882.03;;;26.47;50.19
29247;BME280;16272;48.188;9.964;2022-08-20T12:49:47;95889.84;;;25.92;51.13
29247;BME280;16272;48.188;9.964;2022-08-20T12:52:24;95906.59;;;24.86;51.51
29247;BME280;16272;48.188;9.964;2022-08-20T12:55:08;95895.72;;;24.86;49.45
29247;BME280;16272;48.188;9.964;2022-08-20T12:57:40;95915.47;;;24.69;49.84
29247;BME280;16272;48.188;9.964;2022-08-20T13:00:43;95897.03;;;25.81;49.98
29247;BME280;16272;48.188;9.964;2022-08-20T13:03:02;95896.31;;;25.40;51.27
29247;BME280;16272;48.188;9.964;2022-08-20T13:05:34;95888.56;;;25.95;53.96
29247;BME280;16272;48.188;9.964;2022-08-20T13:08:01;95890.34;;;26.57;51.76